Time;durP1;ratioP1;P1;durP2;ratioP2;P2;SDS_P1;SDS_P2;PMS_P1;PMS_P2;Temp;Humidity;BMP_temperature;BMP_pressure;BME280_temperature;BME280_humidity;BME280_pressure;Samples;Min_cycle;Max_cycle;Signal;HPM_P1;HPM_P2
2021/05/31 00:01:23;;;;;;;;;;;13.40;79.10;;;;;;5041971;28;20032;-74
2021/05/31 00:03:48;;;;;;;5.25;3.63;;;13.40;78.90;;;;;;5045304;28;19920;-74
2021/05/31 00:06:13;;;;;;;;;;;13.30;78.60;;;;;;5043814;28;20029;-73
2021/05/31 00:08:39;;;;;;;5.88;3.45;;;13.30;78.40;;;;;;5042928;28;19924;-74
2021/05/31 00:11:04;;;;;;;;;;;13.30;78.10;;;;;;5046400;28;20067;-74
2021/05/31 00:13:30;;;;;;;7.22;3.53;;;13.20;78.10;;;;;;5045609;28;19920;-73
2021/05/31 00:15:56;;;;;;;;;;;13.20;78.00;;;;;;5045914;28;20455;-73
2021/05/31 00:18:22;;;;;;;5.07;3.75;;;13.10;78.10;;;;;;5044364;28;19940;-73
2021/05/31 00:20:48;;;;;;;5.18;2.88;;;13.10;78.10;;;;;;5044232;28;20064;-74
2021/05/31 00:23:15;;;;;;;3.35;3.03;;;13.00;77.70;;;;;;5042700;28;20029;-73
2021/05/31 00:25:40;;;;;;;6.43;3.08;;;13.00;77.40;;;;;;5043902;28;20086;-74
2021/05/31 00:28:06;;;;;;;;;;;13.00;77.40;;;;;;5040832;28;20025;-73
2021/05/31 00:30:31;;;;;;;6.47;3.30;;;12.90;77.20;;;;;;5045173;28;20276;-73
2021/05/31 00:32:57;;;;;;;;;;;12.90;77.10;;;;;;5045454;28;20094;-73
2021/05/31 00:35:25;;;;;;;5.50;2.80;;;12.80;77.00;;;;;;5043758;28;19913;-73
2021/05/31 00:37:55;;;;;;;4.32;3.50;;;12.80;77.00;;;;;;5043359;28;20404;-72
2021/05/31 00:40:22;;;;;;;4.78;2.90;;;12.80;76.60;;;;;;5046598;28;20032;-74
2021/05/31 00:42:47;;;;;;;6.00;2.58;;;12.70;76.60;;;;;;5045053;28;20029;-73
2021/05/31 00:45:13;;;;;;;;;;;12.70;76.10;;;;;;5043401;28;20505;-73
2021/05/31 00:47:38;;;;;;;3.47;2.55;;;12.60;75.90;;;;;;5046131;28;19938;-73
2021/05/31 00:50:04;;;;;;;;;;;12.60;76.00;;;;;;5042954;28;20029;-74
2021/05/31 00:52:30;;;;;;;5.45;3.00;;;12.50;75.90;;;;;;5043375;28;19915;-73
2021/05/31 00:54:55;;;;;;;;;;;12.50;75.90;;;;;;5046745;28;20609;-72
2021/05/31 00:57:22;;;;;;;3.67;2.75;;;12.40;75.80;;;;;;5049224;28;21325;-73
2021/05/31 00:59:47;;;;;;;4.75;2.72;;;12.40;75.80;;;;;;5047988;28;20567;-72
2021/05/31 01:02:13;;;;;;;;;;;12.40;75.80;;;;;;5045995;28;20086;-72
2021/05/31 01:04:39;;;;;;;6.38;2.78;;;12.30;75.70;;;;;;5049517;28;20363;-73
2021/05/31 01:07:37;;;;;;;;;;;12.30;75.50;;;;;;5046838;28;20487;-72
2021/05/31 01:10:27;;;;;;;3.72;2.50;;;12.30;75.40;;;;;;5038781;28;19916;-72
2021/05/31 01:13:12;;;;;;;3.42;2.30;;;12.30;75.40;;;;;;5049729;28;20036;-72
2021/05/31 01:15:44;;;;;;;2.85;2.58;;;12.20;75.40;;;;;;5048891;28;20037;-74
2021/05/31 01:18:18;;;;;;;4.80;3.22;;;12.20;75.50;;;;;;5045256;28;20095;-76
2021/05/31 01:21:10;;;;;;;4.43;2.53;;;12.20;75.60;;;;;;5046198;28;20028;-75
2021/05/31 01:23:38;;;;;;;4.53;3.15;;;12.20;75.80;;;;;;5047505;28;20025;-74
2021/05/31 01:26:23;;;;;;;7.25;2.95;;;12.10;75.60;;;;;;5051395;28;20396;-73
2021/05/31 01:29:05;;;;;;;5.18;2.30;;;12.20;76.10;;;;;;5043485;28;20526;-75
2021/05/31 01:31:40;;;;;;;6.15;2.58;;;12.10;75.70;;;;;;5048511;28;20052;-73
2021/05/31 01:34:07;;;;;;;3.38;2.97;;;12.10;75.30;;;;;;5051528;28;20017;-75
2021/05/31 01:36:37;;;;;;;6.60;3.15;;;12.10;75.30;;;;;;5046356;28;20025;-75
2021/05/31 01:39:04;;;;;;;4.43;2.75;;;12.10;75.10;;;;;;5049416;28;20029;-75
2021/05/31 01:41:31;;;;;;;5.65;2.47;;;12.10;75.20;;;;;;5050553;28;20021;-75
2021/05/31 01:43:58;;;;;;;3.60;2.90;;;12.00;75.00;;;;;;5048494;28;20029;-74
2021/05/31 01:46:23;;;;;;;4.07;2.88;;;12.00;74.80;;;;;;5046362;28;20392;-75
2021/05/31 01:48:50;;;;;;;;;;;12.00;74.90;;;;;;5047607;28;20041;-74
2021/05/31 01:51:17;;;;;;;12.02;2.78;;;12.00;75.10;;;;;;5049573;28;19909;-75
2021/05/31 01:53:44;;;;;;;9.15;2.90;;;11.90;75.10;;;;;;5044316;28;20028;-74
2021/05/31 01:56:11;;;;;;;4.72;3.38;;;11.90;75.10;;;;;;5048608;28;20118;-73
2021/05/31 01:58:39;;;;;;;3.85;2.50;;;11.90;75.10;;;;;;5048492;28;20029;-73
2021/05/31 02:01:06;;;;;;;4.30;2.58;;;11.90;75.10;;;;;;5046594;28;20036;-75
2021/05/31 02:03:31;;;;;;;2.85;2.33;;;11.90;75.00;;;;;;5042390;28;20032;-73
2021/05/31 02:05:57;;;;;;;;;;;11.80;75.00;;;;;;5045043;28;20515;-73
2021/05/31 02:08:22;;;;;;;4.22;2.65;;;11.80;75.00;;;;;;5047727;28;19919;-73
2021/05/31 02:10:48;;;;;;;;;;;11.80;75.10;;;;;;5048113;28;20071;-74
2021/05/31 02:13:15;;;;;;;10.30;3.22;;;11.80;74.90;;;;;;5048802;28;19983;-73
2021/05/31 02:15:41;;;;;;;3.25;2.85;;;11.80;75.00;;;;;;5047319;28;20490;-73
2021/05/31 02:18:09;;;;;;;;;;;11.80;75.20;;;;;;5047858;28;20040;-73
2021/05/31 02:20:36;;;;;;;5.20;3.13;;;11.80;75.30;;;;;;5048354;28;19978;-73
2021/05/31 02:23:05;;;;;;;5.75;3.42;;;11.70;75.40;;;;;;5045983;28;20029;-74
2021/05/31 02:25:31;;;;;;;4.07;2.90;;;11.60;75.60;;;;;;5044826;28;20391;-73
2021/05/31 02:27:58;;;;;;;5.35;3.13;;;11.60;75.70;;;;;;5046633;28;20086;-73
2021/05/31 02:30:24;;;;;;;5.90;2.70;;;11.50;76.10;;;;;;5046220;28;20084;-73
2021/05/31 02:33:02;;;;;;;6.97;3.00;;;11.50;76.10;;;;;;5046814;28;20392;-73
2021/05/31 02:35:29;;;;;;;4.00;3.03;;;11.50;76.00;;;;;;5046184;28;20021;-73
2021/05/31 02:37:56;;;;;;;3.60;2.83;;;11.40;76.00;;;;;;5042905;28;20082;-73
2021/05/31 02:40:22;;;;;;;2.88;2.60;;;11.40;76.20;;;;;;5047962;28;20414;-74
2021/05/31 02:42:48;;;;;;;;;;;11.40;76.30;;;;;;5044503;28;20095;-73
2021/05/31 02:45:15;;;;;;;3.22;2.22;;;11.30;76.20;;;;;;5047643;28;19967;-73
2021/05/31 02:47:41;;;;;;;5.20;3.10;;;11.30;76.50;;;;;;5045020;28;20060;-73
2021/05/31 02:50:07;;;;;;;;;;;11.30;76.40;;;;;;5046414;28;20067;-73
2021/05/31 02:52:33;;;;;;;5.32;2.47;;;11.30;76.60;;;;;;5045089;28;20306;-74
2021/05/31 02:54:59;;;;;;;3.13;2.60;;;11.10;76.60;;;;;;5046997;28;20615;-73
2021/05/31 02:57:24;;;;;;;;;;;11.00;76.80;;;;;;5045833;28;20115;-73
2021/05/31 02:59:52;;;;;;;5.22;2.47;;;11.00;77.00;;;;;;5060867;28;19944;-74
2021/05/31 03:02:17;;;;;;;5.47;2.83;;;11.00;77.30;;;;;;5046845;28;20051;-73
2021/05/31 03:04:43;;;;;;;;;;;11.00;77.20;;;;;;5048429;28;20556;-73
2021/05/31 03:07:08;;;;;;;4.32;3.17;;;11.00;77.10;;;;;;5045048;28;19990;-73
2021/05/31 03:09:33;;;;;;;;;;;11.00;77.50;;;;;;5045358;28;20025;-74
2021/05/31 03:11:59;;;;;;;3.13;2.33;;;11.00;77.90;;;;;;5047835;28;20326;-74
2021/05/31 03:14:24;;;;;;;;;;;10.90;77.70;;;;;;5045617;28;20051;-73
2021/05/31 03:16:50;;;;;;;4.57;2.97;;;10.90;77.70;;;;;;5042635;28;20005;-73
2021/05/31 03:19:15;;;;;;;;;;;10.90;77.70;;;;;;5046855;28;20111;-74
2021/05/31 03:21:41;;;;;;;3.92;2.78;;;10.90;78.00;;;;;;5046883;28;20295;-74
2021/05/31 03:24:06;;;;;;;;;;;10.80;78.30;;;;;;5046656;28;20029;-74
2021/05/31 03:26:32;;;;;;;5.72;3.15;;;10.80;78.30;;;;;;5044904;28;19917;-74
2021/05/31 03:28:57;;;;;;;;;;;10.80;78.50;;;;;;5045738;28;20037;-74
2021/05/31 03:31:23;;;;;;;5.10;2.90;;;10.80;78.60;;;;;;5043436;28;20472;-74
2021/05/31 03:33:48;;;;;;;;;;;10.70;78.60;;;;;;5046070;28;20061;-75
2021/05/31 03:36:14;;;;;;;7.05;2.95;;;10.70;78.80;;;;;;5045876;28;19917;-73
2021/05/31 03:38:39;;;;;;;;;;;11.10;78.80;;;;;;5045649;28;20024;-73
2021/05/31 03:41:05;;;;;;;5.10;2.65;;;11.50;77.90;;;;;;5047164;28;19955;-73
2021/05/31 03:43:30;;;;;;;;;;;11.90;77.30;;;;;;5047009;28;20442;-73
2021/05/31 03:45:56;;;;;;;4.53;3.38;;;12.30;76.60;;;;;;5048087;28;19913;-74
2021/05/31 03:48:21;;;;;;;;;;;12.70;75.10;;;;;;5042844;28;20032;-73
2021/05/31 03:50:47;;;;;;;4.75;2.85;;;13.10;73.20;;;;;;5044112;28;19962;-73
2021/05/31 03:53:12;;;;;;;;;;;13.40;73.10;;;;;;5048548;28;20504;-74
2021/05/31 03:55:38;;;;;;;4.57;3.53;;;13.80;70.00;;;;;;5046044;28;20665;-74
2021/05/31 03:58:03;;;;;;;;;;;14.10;70.90;;;;;;5044309;28;20492;-73
2021/05/31 04:00:29;;;;;;;4.35;2.47;;;14.40;68.80;;;;;;5045838;28;19908;-73
2021/05/31 04:02:54;;;;;;;;;;;14.80;68.10;;;;;;5046100;28;20056;-73
2021/05/31 04:05:22;;;;;;;4.80;3.20;;;15.20;67.20;;;;;;5036591;28;20008;-75
2021/05/31 04:13:17;;;;;;;6.43;3.83;;;15.20;62.40;;;;;;5046629;28;20501;-73
2021/05/31 04:15:42;;;;;;;;;;;15.10;63.40;;;;;;5046575;28;20115;-73
2021/05/31 04:18:08;;;;;;;5.28;3.60;;;15.30;63.40;;;;;;5043745;28;19909;-73
2021/05/31 04:20:34;;;;;;;;;;;15.60;62.60;;;;;;5045528;28;20055;-73
2021/05/31 04:22:59;;;;;;;4.95;2.88;;;16.00;62.50;;;;;;5043697;28;19908;-74
2021/05/31 04:25:25;;;;;;;;;;;16.30;61.10;;;;;;5045760;28;20033;-74
2021/05/31 04:27:50;;;;;;;4.90;3.40;;;16.40;58.20;;;;;;5045811;28;19916;-74
2021/05/31 04:30:16;;;;;;;;;;;16.40;58.50;;;;;;5048050;28;20149;-76
2021/05/31 04:32:42;;;;;;;4.07;2.95;;;16.30;57.00;;;;;;5048928;28;19909;-74
2021/05/31 04:35:08;;;;;;;3.97;2.33;;;16.30;58.70;;;;;;5051578;28;20073;-74
2021/05/31 04:37:33;;;;;;;;;;;16.40;56.80;;;;;;5047477;28;20023;-75
2021/05/31 04:39:59;;;;;;;4.05;2.88;;;16.50;56.80;;;;;;5046826;28;19913;-74
2021/05/31 04:42:25;;;;;;;4.85;3.30;;;16.70;57.50;;;;;;5050370;28;20030;-74
2021/05/31 04:44:51;;;;;;;3.30;2.40;;;17.10;56.60;;;;;;5046685;28;20033;-74
2021/05/31 04:47:16;;;;;;;3.78;2.67;;;17.50;56.40;;;;;;5047666;28;20037;-74
2021/05/31 04:49:42;;;;;;;4.03;2.03;;;17.80;54.30;;;;;;5047764;28;20470;-74
2021/05/31 04:52:07;;;;;;;3.65;2.70;;;17.90;53.70;;;;;;5051105;28;20457;-74
2021/05/31 04:54:33;;;;;;;4.47;3.08;;;17.70;51.20;;;;;;5048059;28;20104;-74
2021/05/31 04:56:58;;;;;;;5.30;1.92;;;17.20;51.50;;;;;;5050029;28;20025;-74
2021/05/31 04:59:24;;;;;;;5.60;2.90;;;16.80;52.60;;;;;;5048942;28;20040;-74
2021/05/31 05:01:49;;;;;;;3.47;2.13;;;16.60;52.60;;;;;;5047479;28;20029;-74
2021/05/31 05:04:15;;;;;;;;;;;16.40;52.60;;;;;;5045521;28;20476;-74
2021/05/31 05:06:41;;;;;;;2.35;2.15;;;16.30;53.50;;;;;;5048282;28;19908;-73
2021/05/31 05:09:07;;;;;;;4.97;2.25;;;16.60;53.30;;;;;;5048605;28;20029;-73
2021/05/31 05:11:32;;;;;;;3.38;2.58;;;17.00;53.20;;;;;;5046776;28;20365;-73
2021/05/31 05:13:58;;;;;;;;;;;17.80;53.60;;;;;;5047429;28;20060;-73
2021/05/31 05:16:23;;;;;;;3.60;2.00;;;18.50;51.80;;;;;;5050990;28;19905;-73
2021/05/31 05:18:49;;;;;;;;;;;19.00;51.40;;;;;;5047463;28;20449;-73
2021/05/31 05:21:16;;;;;;;5.25;2.15;;;19.20;48.70;;;;;;5049469;28;19959;-73
2021/05/31 05:23:43;;;;;;;5.22;2.30;;;19.20;47.70;;;;;;5048037;28;20091;-73
2021/05/31 05:26:09;;;;;;;4.85;3.35;;;19.00;48.40;;;;;;5049288;28;20120;-73
2021/05/31 05:28:37;;;;;;;5.28;2.10;;;19.00;48.30;;;;;;5044045;28;20032;-73
2021/05/31 05:31:06;;;;;;;4.72;2.35;;;18.70;48.00;;;;;;5047434;28;20033;-73
2021/05/31 05:33:33;;;;;;;7.00;3.42;;;18.30;48.80;;;;;;5046929;28;20040;-73
2021/05/31 05:36:12;;;;;;;4.50;2.50;;;18.10;49.20;;;;;;5047558;28;20103;-73
2021/05/31 05:41:24;;;;;;;3.25;2.45;;;17.70;50.20;;;;;;5050076;28;20506;-73
2021/05/31 05:44:03;;;;;;;3.80;2.17;;;17.60;50.80;;;;;;5048848;28;20104;-73
2021/05/31 05:49:24;;;;;;;9.05;5.40;;;16.80;52.10;;;;;;5020104;28;20073;-73
2021/05/31 05:51:49;;;;;;;14.20;5.10;;;16.50;53.30;;;;;;5048997;28;20114;-73
2021/05/31 05:54:15;;;;;;;6.00;3.13;;;16.60;53.60;;;;;;5049593;28;20612;-73
2021/05/31 05:56:40;;;;;;;3.13;2.20;;;16.60;53.00;;;;;;5048986;28;20033;-73
2021/05/31 05:59:05;;;;;;;3.00;2.05;;;16.30;53.40;;;;;;5048940;28;20584;-73
2021/05/31 06:01:31;;;;;;;2.92;2.10;;;15.80;54.40;;;;;;5046052;28;20111;-72
2021/05/31 06:03:57;;;;;;;7.35;2.88;;;15.50;55.30;;;;;;5046059;28;20447;-73
2021/05/31 06:06:25;;;;;;;3.50;2.42;;;15.30;56.30;;;;;;5047941;28;20029;-72
2021/05/31 06:08:51;;;;;;;4.68;2.38;;;15.30;56.70;;;;;;5040251;28;20420;-72
2021/05/31 06:11:17;;;;;;;3.63;2.25;;;15.40;56.80;;;;;;5046697;28;20036;-72
2021/05/31 06:13:42;;;;;;;4.20;2.35;;;15.50;56.20;;;;;;5047901;28;20025;-72
2021/05/31 06:16:10;;;;;;;2.25;2.03;;;15.70;56.70;;;;;;5045616;28;20052;-72
2021/05/31 06:18:37;;;;;;;4.45;2.42;;;15.90;56.20;;;;;;5041255;28;20029;-74
2021/05/31 06:21:02;;;;;;;3.95;3.05;;;16.10;55.30;;;;;;5040533;28;20499;-74
2021/05/31 06:23:28;;;;;;;6.28;3.78;;;16.40;56.00;;;;;;5043697;28;20079;-74
2021/05/31 06:25:54;;;;;;;6.55;3.83;;;16.70;55.40;;;;;;5060281;28;20121;-74
2021/05/31 06:28:20;;;;;;;7.18;2.47;;;17.00;55.20;;;;;;5043760;28;20040;-74
2021/05/31 06:30:46;;;;;;;2.50;1.77;;;17.10;54.10;;;;;;5044888;28;20048;-74
2021/05/31 06:33:11;;;;;;;4.47;2.38;;;17.10;53.40;;;;;;5046013;28;20020;-72
2021/05/31 06:35:38;;;;;;;4.35;2.28;;;17.30;53.30;;;;;;5046635;28;20384;-73
2021/05/31 06:38:03;;;;;;;4.03;1.52;;;17.20;50.40;;;;;;5045962;28;20123;-73
2021/05/31 06:40:29;;;;;;;4.20;2.35;;;16.90;49.80;;;;;;5047419;28;20152;-73
2021/05/31 06:42:57;;;;;;;2.55;1.83;;;16.70;50.50;;;;;;5046161;28;20037;-73
2021/05/31 06:45:25;;;;;;;4.93;1.70;;;16.70;51.40;;;;;;5047659;28;20044;-72
2021/05/31 06:47:51;;;;;;;6.30;2.20;;;16.80;52.10;;;;;;5045587;28;20396;-73
2021/05/31 06:50:18;;;;;;;3.25;1.42;;;16.90;51.50;;;;;;5046700;28;20029;-73
2021/05/31 06:52:43;;;;;;;4.13;1.10;;;17.00;50.90;;;;;;5048927;28;20036;-74
2021/05/31 06:55:10;;;;;;;8.38;1.88;;;16.90;49.40;;;;;;5046062;28;20033;-72
2021/05/31 06:57:36;;;;;;;4.72;1.80;;;16.60;49.90;;;;;;5048322;28;20038;-72
2021/05/31 07:00:06;;;;;;;4.82;1.75;;;16.30;51.20;;;;;;5041929;28;20037;-74
2021/05/31 07:02:31;;;;;;;3.28;1.38;;;16.40;51.90;;;;;;5047009;28;20108;-74
2021/05/31 07:04:57;;;;;;;3.10;1.58;;;16.60;51.60;;;;;;5045069;28;20124;-74
2021/05/31 07:07:22;;;;;;;;;;;16.70;50.90;;;;;;5046562;28;20025;-74
2021/05/31 07:09:48;;;;;;;3.60;1.88;;;16.50;50.90;;;;;;5059033;28;19917;-74
2021/05/31 07:12:17;;;;;;;;;;;16.70;50.90;;;;;;5048169;28;20025;-73
2021/05/31 07:14:47;;;;;;;2.58;1.50;;;16.80;50.70;;;;;;5043037;28;19948;-73
2021/05/31 07:17:14;;;;;;;4.60;1.30;;;16.80;50.50;;;;;;5045892;28;20025;-74
2021/05/31 07:19:43;;;;;;;3.25;1.40;;;16.70;49.30;;;;;;5045943;28;20031;-74
2021/05/31 07:22:08;;;;;;;4.00;1.40;;;16.50;48.30;;;;;;5046083;28;20116;-73
2021/05/31 07:24:34;;;;;;;2.22;1.70;;;16.30;47.90;;;;;;5045570;28;20119;-72
2021/05/31 07:26:59;;;;;;;3.28;1.63;;;16.20;49.60;;;;;;5043072;28;20025;-74
2021/05/31 07:29:25;;;;;;;;;;;16.50;49.50;;;;;;5041286;28;20033;-74
2021/05/31 07:31:50;;;;;;;8.65;1.60;;;16.70;48.60;;;;;;5038598;28;19963;-74
2021/05/31 07:34:16;;;;;;;4.90;1.40;;;16.80;48.70;;;;;;5046159;28;20017;-73
2021/05/31 07:36:41;;;;;;;3.35;1.50;;;16.90;48.60;;;;;;5045075;28;20039;-76
2021/05/31 07:39:08;;;;;;;3.25;1.10;;;17.10;48.50;;;;;;5044100;28;20496;-74
2021/05/31 07:41:34;;;;;;;5.13;1.75;;;17.20;47.20;;;;;;5045911;28;20064;-74
2021/05/31 07:43:59;;;;;;;3.80;1.67;;;17.20;46.90;;;;;;5045561;28;20068;-75
2021/05/31 07:46:25;;;;;;;4.55;1.40;;;17.20;46.20;;;;;;5045404;28;20040;-74
2021/05/31 07:48:51;;;;;;;3.45;2.00;;;17.20;48.00;;;;;;5042820;28;20151;-74
2021/05/31 07:51:18;;;;;;;2.55;1.80;;;17.30;48.00;;;;;;5044587;28;20095;-74
2021/05/31 07:53:47;;;;;;;2.22;1.48;;;17.30;48.50;;;;;;5045703;28;20028;-77
2021/05/31 07:56:13;;;;;;;2.85;1.20;;;17.50;48.10;;;;;;5046844;28;20025;-74
2021/05/31 07:58:40;;;;;;;3.35;1.13;;;17.60;47.30;;;;;;5046208;28;20074;-73
2021/05/31 08:01:05;;;;;;;4.05;1.20;;;17.60;48.40;;;;;;5043885;28;20076;-73
2021/05/31 08:03:31;;;;;;;2.50;0.90;;;17.60;47.10;;;;;;5044370;28;20033;-73
2021/05/31 08:05:58;;;;;;;2.47;1.17;;;17.70;46.70;;;;;;5041939;28;20037;-73
2021/05/31 08:08:24;;;;;;;2.58;1.08;;;17.60;46.10;;;;;;5044664;28;20029;-73
2021/05/31 08:10:49;;;;;;;1.52;0.80;;;17.70;45.60;;;;;;5048127;28;20036;-73
2021/05/31 08:13:15;;;;;;;5.20;1.52;;;17.70;45.10;;;;;;5045828;28;20036;-74
2021/05/31 08:15:40;;;;;;;2.95;1.23;;;17.80;44.40;;;;;;5059292;28;20013;-73
2021/05/31 08:18:06;;;;;;;2.10;1.10;;;17.70;43.20;;;;;;5045486;28;20040;-74
2021/05/31 08:20:34;;;;;;;5.10;0.73;;;17.80;43.70;;;;;;5043274;28;20033;-73
2021/05/31 08:23:00;;;;;;;2.53;0.70;;;17.80;42.60;;;;;;5043908;28;20112;-73
2021/05/31 08:25:26;;;;;;;3.10;1.50;;;17.70;43.20;;;;;;5046548;28;20455;-73
2021/05/31 08:27:52;;;;;;;5.00;1.73;;;17.80;42.90;;;;;;5043862;28;20079;-73
2021/05/31 08:30:19;;;;;;;2.40;1.05;;;17.80;42.80;;;;;;5045395;28;20028;-74
2021/05/31 08:32:44;;;;;;;2.95;1.45;;;17.80;42.30;;;;;;5045770;28;20031;-74
2021/05/31 08:35:10;;;;;;;1.98;0.75;;;17.80;43.30;;;;;;5044951;28;20029;-73
2021/05/31 08:37:36;;;;;;;2.10;0.70;;;17.80;44.20;;;;;;5041556;28;20036;-74
2021/05/31 08:40:04;;;;;;;4.45;1.38;;;17.90;42.80;;;;;;5046517;28;20472;-73
2021/05/31 08:42:30;;;;;;;1.30;0.90;;;18.00;43.60;;;;;;5043662;28;20060;-74
2021/05/31 08:44:56;;;;;;;1.23;0.77;;;18.10;41.70;;;;;;5046785;28;20056;-72
2021/05/31 08:47:23;;;;;;;2.47;1.33;;;18.20;40.50;;;;;;5045945;28;20559;-72
2021/05/31 08:49:50;;;;;;;10.85;1.73;;;18.20;38.40;;;;;;5045534;28;20049;-73
2021/05/31 08:52:15;;;;;;;3.15;1.05;;;18.20;40.00;;;;;;5045619;28;20028;-74
2021/05/31 08:54:41;;;;;;;1.80;0.80;;;18.30;39.80;;;;;;5045501;28;20033;-75
2021/05/31 08:57:06;;;;;;;3.28;0.70;;;18.20;40.20;;;;;;5047047;28;20116;-73
2021/05/31 08:59:32;;;;;;;1.10;0.70;;;18.20;37.20;;;;;;5045799;28;20071;-75
2021/05/31 09:01:57;;;;;;;3.80;1.08;;;18.30;37.50;;;;;;5046576;28;20087;-75
2021/05/31 09:04:24;;;;;;;2.83;0.77;;;18.30;38.10;;;;;;5046492;28;20037;-75
2021/05/31 09:06:54;;;;;;;1.30;0.50;;;18.40;38.50;;;;;;5046514;28;20067;-74
2021/05/31 09:09:19;;;;;;;11.57;1.77;;;18.40;37.90;;;;;;5044587;28;20025;-75
2021/05/31 09:11:56;;;;;;;4.07;0.63;;;18.40;36.40;;;;;;5044489;28;20025;-75
2021/05/31 09:14:22;;;;;;;2.38;1.05;;;18.40;33.90;;;;;;5044903;28;20120;-74
2021/05/31 09:16:48;;;;;;;4.95;2.42;;;18.40;35.90;;;;;;5046618;28;20096;-74
2021/05/31 09:19:14;;;;;;;3.50;1.77;;;18.40;35.40;;;;;;5049336;28;20033;-75
2021/05/31 09:21:42;;;;;;;1.52;0.90;;;18.40;35.70;;;;;;5049761;28;20029;-75
2021/05/31 09:24:10;;;;;;;5.07;1.40;;;18.30;37.70;;;;;;5048432;28;20689;-75
2021/05/31 09:26:46;;;;;;;2.08;0.60;;;18.40;37.10;;;;;;5049154;28;20037;-73
2021/05/31 09:29:12;;;;;;;5.07;3.03;;;18.50;35.50;;;;;;5050397;28;20048;-73
2021/05/31 09:31:37;;;;;;;3.45;1.42;;;18.50;35.90;;;;;;5048206;28;20025;-75
2021/05/31 09:34:12;;;;;;;2.97;1.25;;;18.50;36.30;;;;;;5047606;28;20025;-76
2021/05/31 09:36:56;;;;;;;13.02;1.73;;;18.40;35.90;;;;;;5047131;28;20551;-76
2021/05/31 09:39:42;;;;;;;2.03;0.98;;;18.40;36.80;;;;;;5048798;28;20063;-74
2021/05/31 09:42:14;;;;;;;;;;;18.70;38.70;;;;;;5049435;28;20033;-67
2021/05/31 09:44:40;;;;;;;2.00;0.65;;;19.00;38.90;;;;;;5046985;28;20318;-70
2021/05/31 09:47:06;;;;;;;1.95;1.08;;;19.10;39.10;;;;;;5046997;28;20692;-70
2021/05/31 09:49:35;;;;;;;4.10;0.80;;;18.90;37.90;;;;;;5046989;28;20036;-70
2021/05/31 09:52:06;;;;;;;1.83;0.80;;;18.80;39.20;;;;;;5048557;28;20055;-71
2021/05/31 09:54:34;;;;;;;2.67;0.90;;;18.90;39.70;;;;;;5049600;28;20511;-69
2021/05/31 09:57:14;;;;;;;4.10;1.00;;;19.10;40.90;;;;;;5048175;28;20033;-69
2021/05/31 09:59:41;;;;;;;7.07;4.35;;;19.50;39.60;;;;;;5048247;28;20099;-70
2021/05/31 10:02:08;;;;;;;8.90;5.47;;;19.50;37.10;;;;;;5046486;28;20036;-70
2021/05/31 10:04:50;;;;;;;3.88;2.58;;;19.50;37.20;;;;;;5048012;28;20134;-70
2021/05/31 10:09:46;;;;;;;2.03;1.25;;;19.60;37.90;;;;;;5046174;28;20033;-70
2021/05/31 10:12:12;;;;;;;3.78;2.65;;;19.70;38.30;;;;;;5048148;28;20100;-69
2021/05/31 10:14:39;;;;;;;4.85;1.40;;;19.70;38.20;;;;;;5049190;28;20119;-70
2021/05/31 10:17:05;;;;;;;3.92;2.53;;;19.70;36.90;;;;;;5049205;28;20032;-69
2021/05/31 10:19:31;;;;;;;6.10;2.85;;;19.70;37.10;;;;;;5048128;28;20029;-69
2021/05/31 10:21:57;;;;;;;6.70;4.07;;;19.80;37.30;;;;;;5043611;28;20029;-69
2021/05/31 10:24:23;;;;;;;3.22;2.03;;;19.90;35.70;;;;;;5045896;28;20040;-69
2021/05/31 10:26:49;;;;;;;7.57;3.38;;;19.90;35.80;;;;;;5039543;28;20560;-69
2021/05/31 10:29:15;;;;;;;6.28;4.70;;;19.90;34.90;;;;;;5047527;28;20116;-68
2021/05/31 10:31:45;;;;;;;7.13;6.07;;;19.60;35.90;;;;;;5047987;28;20100;-69
2021/05/31 10:34:21;;;;;;;14.32;9.73;;;19.60;37.20;;;;;;5046708;28;20041;-69
2021/05/31 10:36:50;;;;;;;;;;;19.70;36.10;;;;;;5049329;28;20025;-68
2021/05/31 10:39:27;;;;;;;12.60;9.52;;;19.90;37.00;;;;;;4976844;28;19920;-68
2021/05/31 10:42:06;;;;;;;;;;;20.20;37.40;;;;;;5042252;28;20035;-76
2021/05/31 10:44:32;;;;;;;6.32;4.20;;;20.40;36.60;;;;;;5049059;28;19913;-77
2021/05/31 10:47:25;;;;;;;5.05;1.25;;;20.40;34.50;;;;;;5048036;28;20024;-76
2021/05/31 10:49:55;;;;;;;25.35;16.67;;;20.10;35.20;;;;;;5047387;28;20122;-76
2021/05/31 10:52:21;;;;;;;23.02;12.65;;;20.10;31.80;;;;;;5047931;28;20044;-76
2021/05/31 10:54:46;;;;;;;6.45;4.97;;;20.10;34.40;;;;;;5047219;28;20481;-78
2021/05/31 10:57:12;;;;;;;5.05;2.88;;;20.40;34.80;;;;;;5048634;28;20037;-77
2021/05/31 10:59:51;;;;;;;5.82;3.90;;;20.40;34.80;;;;;;5046315;28;20725;-74
2021/05/31 11:02:27;;;;;;;2.70;1.00;;;20.50;35.90;;;;;;5044282;28;20032;-77
2021/05/31 11:05:08;;;;;;;1.88;0.98;;;20.50;31.80;;;;;;5044041;28;20036;-76
2021/05/31 11:07:34;;;;;;;6.40;1.55;;;20.20;33.40;;;;;;5046326;28;20028;-77
2021/05/31 11:10:00;;;;;;;3.17;2.40;;;20.40;34.80;;;;;;5059636;28;20050;-75
2021/05/31 11:12:32;;;;;;;10.45;8.00;;;20.60;32.10;;;;;;5043907;28;20025;-78
2021/05/31 11:15:11;;;;;;;6.53;4.93;;;20.60;32.80;;;;;;5048050;28;20519;-78
2021/05/31 11:17:53;;;;;;;2.55;1.80;;;20.50;34.10;;;;;;5048118;28;20056;-78
2021/05/31 11:20:20;;;;;;;3.67;2.65;;;20.70;34.60;;;;;;5048777;28;20031;-78
2021/05/31 11:23:01;;;;;;;3.28;0.98;;;20.90;33.20;;;;;;5046872;28;20090;-78
2021/05/31 11:25:28;;;;;;;11.68;7.43;;;21.10;33.60;;;;;;5048749;28;20508;-77
2021/05/31 11:28:01;;;;;;;10.15;7.45;;;21.20;31.40;;;;;;5045070;28;20093;-77
2021/05/31 11:30:30;;;;;;;4.53;1.50;;;21.10;33.00;;;;;;5046067;28;20021;-80
2021/05/31 11:33:01;;;;;;;3.72;1.55;;;21.10;33.00;;;;;;5048154;28;20025;-79
2021/05/31 11:35:28;;;;;;;6.45;3.50;;;21.00;30.50;;;;;;5044360;28;20032;-77
2021/05/31 11:37:55;;;;;;;21.98;16.48;;;20.70;32.40;;;;;;5048049;28;20036;-79
2021/05/31 11:40:32;;;;;;;17.48;12.73;;;20.70;31.50;;;;;;5046199;28;20060;-79
2021/05/31 11:43:03;;;;;;;5.28;2.10;;;20.60;32.30;;;;;;5048378;28;20033;-78
2021/05/31 11:45:37;;;;;;;10.30;7.18;;;20.60;33.80;;;;;;5046832;28;20499;-77
2021/05/31 11:48:08;;;;;;;3.50;1.50;;;20.90;34.00;;;;;;5045660;28;20107;-78
2021/05/31 11:50:35;;;;;;;2.38;0.70;;;21.00;33.00;;;;;;5045233;28;20053;-78
2021/05/31 11:53:04;;;;;;;6.35;3.78;;;20.90;33.60;;;;;;5047520;28;20047;-74
2021/05/31 11:55:30;;;;;;;6.72;3.42;;;20.70;32.90;;;;;;5048392;28;20025;-75
2021/05/31 11:57:56;;;;;;;4.47;3.08;;;20.70;33.70;;;;;;5045435;28;20036;-74
2021/05/31 12:00:24;;;;;;;7.10;5.57;;;20.80;33.60;;;;;;5044430;28;20447;-74
2021/05/31 12:02:50;;;;;;;6.05;4.50;;;21.00;33.60;;;;;;5045473;28;20040;-74
2021/05/31 12:05:36;;;;;;;5.72;4.60;;;21.10;33.00;;;;;;5048743;28;20043;-75
2021/05/31 12:08:02;;;;;;;;;;;21.20;33.40;;;;;;5046501;28;20091;-74
2021/05/31 12:10:28;;;;;;;5.27;3.07;;;21.10;32.20;;;;;;5046559;28;19917;-76
2021/05/31 12:12:54;;;;;;;3.28;1.58;;;21.10;33.70;;;;;;5043758;28;20028;-74
2021/05/31 12:15:20;;;;;;;2.58;1.30;;;21.30;33.70;;;;;;5047217;28;20021;-72
2021/05/31 12:17:47;;;;;;;5.57;2.58;;;21.10;33.80;;;;;;5045039;28;20033;-72
2021/05/31 12:20:13;;;;;;;29.27;20.65;;;21.00;33.60;;;;;;5045622;28;20025;-72
2021/05/31 12:22:38;;;;;;;6.65;3.78;;;20.90;32.90;;;;;;5048730;28;20036;-72
2021/05/31 12:25:08;;;;;;;7.40;3.53;;;20.60;34.10;;;;;;5047414;28;20539;-71
2021/05/31 12:27:36;;;;;;;1.55;0.88;;;20.90;34.30;;;;;;5046403;28;20373;-72
2021/05/31 12:30:12;;;;;;;1.48;0.90;;;21.00;34.40;;;;;;5045785;28;20029;-72
2021/05/31 12:32:37;;;;;;;5.05;1.10;;;21.10;36.30;;;;;;5062509;28;20037;-72
2021/05/31 12:35:04;;;;;;;12.35;9.55;;;21.60;36.60;;;;;;5044488;28;20163;-70
2021/05/31 12:37:32;;;;;;;67.93;47.90;;;21.80;32.60;;;;;;5046213;28;20034;-71
2021/05/31 12:40:02;;;;;;;42.72;29.67;;;21.70;32.80;;;;;;5044529;28;20021;-71
2021/05/31 12:42:30;;;;;;;5.80;3.65;;;21.70;32.70;;;;;;5046707;28;20033;-71
2021/05/31 12:45:04;;;;;;;6.40;5.65;;;21.60;34.60;;;;;;5046899;28;20399;-73
2021/05/31 12:47:41;;;;;;;2.90;1.55;;;21.40;33.20;;;;;;5044449;28;20132;-73
2021/05/31 12:50:33;;;;;;;4.55;1.25;;;21.50;33.90;;;;;;5042925;28;20033;-71
2021/05/31 12:53:06;;;;;;;29.40;21.67;;;21.60;33.00;;;;;;5047798;28;20021;-73
2021/05/31 12:55:34;;;;;;;5.50;4.22;;;21.50;33.60;;;;;;5050040;28;20136;-73
2021/05/31 12:58:13;;;;;;;3.13;1.65;;;21.50;33.20;;;;;;5047998;28;20022;-74
2021/05/31 13:00:39;;;;;;;0.80;0.50;;;21.50;32.90;;;;;;5041846;28;20108;-76
2021/05/31 13:03:05;;;;;;;8.82;4.88;;;21.50;33.60;;;;;;5050454;28;20368;-75
2021/05/31 13:05:34;;;;;;;18.15;12.68;;;21.60;33.60;;;;;;5048552;28;20083;-74
2021/05/31 13:08:04;;;;;;;12.93;8.93;;;21.60;33.50;;;;;;5049436;28;20071;-74
2021/05/31 13:10:34;;;;;;;20.60;14.50;;;21.60;33.30;;;;;;5050823;28;20053;-74
2021/05/31 13:13:07;;;;;;;15.27;8.70;;;21.50;33.70;;;;;;5050730;28;20730;-74
2021/05/31 13:15:55;;;;;;;4.72;3.47;;;21.40;34.90;;;;;;5050955;28;20107;-74